Bass River, Massachusetts
Current Conditions -  °F | °C
As of 12:07 PM on Wednesday 26 Nov 2014 (Local Time) from KHYA Reporting Station
Moderate Rain Moderate Rain  
Wind Chill: 36°   Ceiling: 800
Heat Index: 43°   Visibility: 1.7mi
Dew Point: 41°   Wind: 13mph
Humidity: 93%   Direction: 30°NNE
Pressure: 30.03"   Gusts: 21mph
Location:  41.6739°N, 70.1961°W
Report Text: KHYA 261707Z 03011G18KT 1 3/4SM RA BR BKN008 OVC011 06/05 A3003 RMK AO2 CIG 004V009 P0003 T00610050
Loading
Personal Weather Stations






























Interactive Weather Map New forecast layout! Learn more

10-Day Weather Forecast

Advertisements
Track Severe Weather on mobile